Time;durP1;ratioP1;P1;durP2;ratioP2;P2;SDS_P1;SDS_P2;PMS_P1;PMS_P2;Temp;Humidity;BMP_temperature;BMP_pressure;BME280_temperature;BME280_humidity;BME280_pressure;Samples;Min_cycle;Max_cycle;Signal;HPM_P1;HPM_P2
2022/04/10 00:00:37;;;;;;;7.63;4.50;;;;;;;;;;5031283;28;20042;-82
2022/04/10 00:03:04;;;;;;;5.93;3.90;;;;;;;;;;5048326;28;20103;-82
2022/04/10 00:05:30;;;;;;;8.27;5.13;;;;;;;;;;5051779;28;20017;-83
2022/04/10 00:07:56;;;;;;;5.68;3.10;;;;;;;;;;5052484;28;20025;-83
2022/04/10 00:10:22;;;;;;;2.95;2.15;;;;;;;;;;5054026;28;20025;-81
2022/04/10 00:12:48;;;;;;;7.97;4.50;;;;;;;;;;5054223;28;20593;-81
2022/04/10 00:15:14;;;;;;;7.63;5.15;;;;;;;;;;5053954;28;20021;-83
2022/04/10 00:17:41;;;;;;;8.90;5.22;;;;;;;;;;5053801;28;20017;-82
2022/04/10 00:20:09;;;;;;;6.07;2.60;;;;;;;;;;5055209;28;20571;-81
2022/04/10 00:22:42;;;;;;;5.78;3.88;;;;;;;;;;5053906;28;20025;-81
2022/04/10 00:25:09;;;;;;;9.65;5.38;;;;;;;;;;5055158;28;20025;-82
2022/04/10 00:27:35;;;;;;;6.65;4.50;;;;;;;;;;5053902;28;20025;-82
2022/04/10 00:30:01;;;;;;;3.17;2.65;;;;;;;;;;5053907;28;20017;-83
2022/04/10 00:32:27;;;;;;;3.80;2.78;;;;;;;;;;5053954;28;20017;-82
2022/04/10 00:34:54;;;;;;;3.78;2.50;;;;;;;;;;5054115;28;20021;-82
2022/04/10 00:37:20;;;;;;;6.50;3.78;;;;;;;;;;5053632;28;20056;-81
2022/04/10 00:39:46;;;;;;;3.50;2.40;;;;;;;;;;5054577;28;20021;-80
2022/04/10 00:42:12;;;;;;;5.35;3.13;;;;;;;;;;5054583;28;20029;-79
2022/04/10 00:44:38;;;;;;;4.05;3.03;;;;;;;;;;5052570;28;20484;-80
2022/04/10 00:47:05;;;;;;;3.17;2.47;;;;;;;;;;5052493;28;20029;-81
2022/04/10 00:49:31;;;;;;;7.40;2.97;;;;;;;;;;5037042;28;20357;-82
2022/04/10 00:51:57;;;;;;;3.53;2.13;;;;;;;;;;5052263;28;20049;-83
2022/04/10 00:54:30;;;;;;;6.65;2.28;;;;;;;;;;5055003;28;20051;-84
2022/04/10 00:56:57;;;;;;;3.90;2.67;;;;;;;;;;5053661;28;20551;-83
2022/04/10 00:59:23;;;;;;;4.32;3.17;;;;;;;;;;5053600;28;20021;-83
2022/04/10 01:01:50;;;;;;;5.15;3.08;;;;;;;;;;5054484;28;20033;-84
2022/04/10 01:04:16;;;;;;;5.43;3.05;;;;;;;;;;5054575;28;20021;-85
2022/04/10 01:06:43;;;;;;;5.10;3.13;;;;;;;;;;5053694;28;20028;-81
2022/04/10 01:09:09;;;;;;;5.97;3.63;;;;;;;;;;5053125;28;20021;-81
2022/04/10 01:11:36;;;;;;;7.82;4.57;;;;;;;;;;5053393;28;20028;-82
2022/04/10 01:14:04;;;;;;;8.60;4.47;;;;;;;;;;5053379;28;20036;-84
2022/04/10 01:16:31;;;;;;;6.57;4.13;;;;;;;;;;5054841;28;20031;-83
2022/04/10 01:18:57;;;;;;;6.47;3.10;;;;;;;;;;5053138;28;20436;-87
2022/04/10 01:21:27;;;;;;;8.00;3.83;;;;;;;;;;5053844;28;20072;-85
2022/04/10 01:23:53;;;;;;;4.38;3.00;;;;;;;;;;5053368;28;20029;-85
2022/04/10 01:26:20;;;;;;;5.65;3.92;;;;;;;;;;5054606;28;20020;-84
2022/04/10 01:28:59;;;;;;;5.55;3.58;;;;;;;;;;5050981;28;20021;-85
2022/04/10 01:31:26;;;;;;;4.30;1.67;;;;;;;;;;5051109;28;20790;-87
2022/04/10 01:33:52;;;;;;;3.10;1.88;;;;;;;;;;5052772;28;20029;-86
2022/04/10 01:36:18;;;;;;;4.35;2.85;;;;;;;;;;5053969;28;20071;-85
2022/04/10 01:38:45;;;;;;;7.07;3.80;;;;;;;;;;5052182;28;20029;-83
2022/04/10 01:41:12;;;;;;;3.65;2.45;;;;;;;;;;5052957;28;20028;-83
2022/04/10 01:43:44;;;;;;;5.20;3.42;;;;;;;;;;5053065;28;20013;-82
2022/04/10 01:46:11;;;;;;;5.88;3.97;;;;;;;;;;5052788;28;21023;-81
2022/04/10 01:48:37;;;;;;;7.85;4.85;;;;;;;;;;5052638;28;20032;-82
2022/04/10 01:51:03;;;;;;;5.57;3.83;;;;;;;;;;5054145;28;20045;-83
2022/04/10 01:53:30;;;;;;;7.40;3.95;;;;;;;;;;5052648;28;20021;-81
2022/04/10 01:55:56;;;;;;;6.32;3.95;;;;;;;;;;5052533;28;20021;-80
2022/04/10 01:58:22;;;;;;;6.55;4.28;;;;;;;;;;5052201;28;20025;-80
2022/04/10 02:00:48;;;;;;;5.75;3.58;;;;;;;;;;5052202;28;20043;-80
2022/04/10 02:03:14;;;;;;;7.03;4.10;;;;;;;;;;5052294;28;20083;-79
2022/04/10 02:05:40;;;;;;;6.57;4.15;;;;;;;;;;5054601;28;20120;-80
2022/04/10 02:08:06;;;;;;;9.30;5.05;;;;;;;;;;5052579;28;20025;-80
2022/04/10 02:10:33;;;;;;;6.45;3.92;;;;;;;;;;5052503;28;20108;-81
2022/04/10 02:12:59;;;;;;;8.55;4.35;;;;;;;;;;5053843;28;20484;-81
2022/04/10 02:15:25;;;;;;;5.22;3.83;;;;;;;;;;5052579;28;20492;-82
2022/04/10 02:17:51;;;;;;;5.00;3.30;;;;;;;;;;5052300;28;20029;-81
2022/04/10 02:20:17;;;;;;;4.85;3.65;;;;;;;;;;5035188;28;20030;-80
2022/04/10 02:22:43;;;;;;;4.20;2.60;;;;;;;;;;5032597;28;20025;-82
2022/04/10 02:25:09;;;;;;;5.18;2.08;;;;;;;;;;5033143;28;20021;-82
2022/04/10 02:27:35;;;;;;;5.63;3.08;;;;;;;;;;5032395;28;20026;-82
2022/04/10 02:30:01;;;;;;;6.50;3.22;;;;;;;;;;5032497;28;20075;-81
2022/04/10 02:32:29;;;;;;;5.03;3.03;;;;;;;;;;5032402;28;20453;-82
2022/04/10 02:34:55;;;;;;;5.43;3.15;;;;;;;;;;5033454;28;20032;-82
2022/04/10 02:37:21;;;;;;;8.10;2.80;;;;;;;;;;5032321;28;20112;-83
2022/04/10 02:39:47;;;;;;;4.70;3.05;;;;;;;;;;5032208;28;20021;-83
2022/04/10 02:42:13;;;;;;;5.75;3.65;;;;;;;;;;5032094;28;20033;-84
2022/04/10 02:44:39;;;;;;;4.82;2.97;;;;;;;;;;5032193;28;20018;-81
2022/04/10 02:47:05;;;;;;;4.85;3.38;;;;;;;;;;5036577;28;20024;-81
2022/04/10 02:49:31;;;;;;;5.47;3.20;;;;;;;;;;5051339;28;20021;-83
2022/04/10 02:51:57;;;;;;;6.80;3.55;;;;;;;;;;5051747;28;20057;-81
2022/04/10 02:54:23;;;;;;;6.95;3.95;;;;;;;;;;5051852;28;20082;-82
2022/04/10 02:56:49;;;;;;;7.22;3.80;;;;;;;;;;5051694;28;20028;-82
2022/04/10 02:59:15;;;;;;;4.88;3.42;;;;;;;;;;5051693;28;20120;-82
2022/04/10 03:01:42;;;;;;;5.05;2.95;;;;;;;;;;5053131;28;20073;-81
2022/04/10 03:04:08;;;;;;;4.85;2.17;;;;;;;;;;5051799;28;20111;-82
2022/04/10 03:06:34;;;;;;;2.65;1.58;;;;;;;;;;5055671;28;20025;-84
2022/04/10 03:09:00;;;;;;;1.38;1.02;;;;;;;;;;5054314;28;20021;-86
2022/04/10 03:11:26;;;;;;;0.63;0.63;;;;;;;;;;5051483;28;20044;-84
2022/04/10 03:13:52;;;;;;;1.67;0.60;;;;;;;;;;5051942;28;20024;-86
2022/04/10 03:16:19;;;;;;;0.60;0.52;;;;;;;;;;5052179;28;20025;-84
2022/04/10 03:18:45;;;;;;;0.55;0.55;;;;;;;;;;5051725;28;20055;-86
2022/04/10 03:21:11;;;;;;;1.08;0.95;;;;;;;;;;5046369;28;20492;-85
2022/04/10 03:23:37;;;;;;;1.05;0.70;;;;;;;;;;5031663;28;20030;-84
2022/04/10 03:26:03;;;;;;;0.95;0.80;;;;;;;;;;5040858;28;20048;-88
2022/04/10 03:28:29;;;;;;;0.95;0.75;;;;;;;;;;5056140;28;20014;-87
2022/04/10 03:30:55;;;;;;;1.05;0.88;;;;;;;;;;5058211;28;20033;-86
2022/04/10 03:33:21;;;;;;;2.17;1.35;;;;;;;;;;5052061;28;20025;-85
2022/04/10 03:35:47;;;;;;;2.70;1.52;;;;;;;;;;5051704;28;20484;-85
2022/04/10 03:38:13;;;;;;;5.28;2.70;;;;;;;;;;5051561;28;20052;-84
2022/04/10 03:40:39;;;;;;;4.90;2.72;;;;;;;;;;5051523;28;20033;-83
2022/04/10 03:43:05;;;;;;;3.90;2.25;;;;;;;;;;5052724;28;20025;-83
2022/04/10 03:45:31;;;;;;;2.47;1.63;;;;;;;;;;5056751;28;20067;-83
2022/04/10 03:47:58;;;;;;;3.10;1.92;;;;;;;;;;5055563;28;20112;-81
2022/04/10 03:50:25;;;;;;;4.35;2.33;;;;;;;;;;5055443;28;20091;-83
2022/04/10 03:52:52;;;;;;;3.55;2.20;;;;;;;;;;5055484;28;20079;-84
2022/04/10 03:55:18;;;;;;;4.50;2.03;;;;;;;;;;5055153;28;20021;-84
2022/04/10 03:57:44;;;;;;;4.03;2.50;;;;;;;;;;5055226;28;20075;-83
2022/04/10 04:00:10;;;;;;;4.25;1.95;;;;;;;;;;5054862;28;20025;-83
2022/04/10 04:02:40;;;;;;;3.03;1.75;;;;;;;;;;5055024;28;20021;-82
2022/04/10 04:05:07;;;;;;;3.50;1.90;;;;;;;;;;5055124;28;20025;-84
2022/04/10 04:07:33;;;;;;;3.25;2.15;;;;;;;;;;5055046;28;20048;-83
2022/04/10 04:09:59;;;;;;;1.00;0.93;;;;;;;;;;5060192;28;20049;-84
2022/04/10 04:12:25;;;;;;;1.92;1.08;;;;;;;;;;5056115;28;20017;-84
2022/04/10 04:14:51;;;;;;;0.80;0.80;;;;;;;;;;5054686;28;20025;-85
2022/04/10 04:17:17;;;;;;;1.63;1.02;;;;;;;;;;5056181;28;20021;-85
2022/04/10 04:19:46;;;;;;;2.40;1.73;;;;;;;;;;5055114;28;20025;-84
2022/04/10 04:22:12;;;;;;;3.25;2.20;;;;;;;;;;5055935;28;20056;-85
2022/04/10 04:24:38;;;;;;;4.15;1.98;;;;;;;;;;5054732;28;20024;-85
2022/04/10 04:27:04;;;;;;;5.18;2.50;;;;;;;;;;5054767;28;20028;-84
2022/04/10 04:29:30;;;;;;;4.78;2.50;;;;;;;;;;5054817;28;20070;-84
2022/04/10 04:31:56;;;;;;;7.60;2.90;;;;;;;;;;5054226;28;20025;-85
2022/04/10 04:34:23;;;;;;;10.48;2.90;;;;;;;;;;5054447;28;20388;-86
2022/04/10 04:36:49;;;;;;;5.93;2.95;;;;;;;;;;5060782;28;20021;-85
2022/04/10 04:39:15;;;;;;;15.77;4.75;;;;;;;;;;5054668;28;20021;-82
2022/04/10 04:41:41;;;;;;;14.38;3.97;;;;;;;;;;5054469;28;20045;-82
2022/04/10 04:44:07;;;;;;;9.35;3.20;;;;;;;;;;5054421;28;20021;-83
2022/04/10 04:46:35;;;;;;;5.55;3.20;;;;;;;;;;5055439;28;20017;-81
2022/04/10 04:49:01;;;;;;;10.77;4.60;;;;;;;;;;5055279;28;20032;-82
2022/04/10 04:51:28;;;;;;;12.68;3.90;;;;;;;;;;5054440;28;20049;-81
2022/04/10 04:53:54;;;;;;;8.05;3.75;;;;;;;;;;5053342;28;20037;-81
2022/04/10 04:56:20;;;;;;;8.27;2.65;;;;;;;;;;5053432;28;20025;-81
2022/04/10 04:58:47;;;;;;;12.18;5.20;;;;;;;;;;5053616;28;20383;-80
2022/04/10 05:01:14;;;;;;;11.30;4.78;;;;;;;;;;5054003;28;20488;-80
2022/04/10 05:03:40;;;;;;;9.32;4.57;;;;;;;;;;5054944;28;20025;-80
2022/04/10 05:06:06;;;;;;;11.10;5.15;;;;;;;;;;5053663;28;20060;-80
2022/04/10 05:08:32;;;;;;;11.57;3.70;;;;;;;;;;5053494;28;20042;-81
2022/04/10 05:10:59;;;;;;;10.00;5.20;;;;;;;;;;5053697;28;20025;-80
2022/04/10 05:13:25;;;;;;;5.57;3.28;;;;;;;;;;5059172;28;20540;-80
2022/04/10 05:15:51;;;;;;;13.90;6.97;;;;;;;;;;5054832;28;20025;-80
2022/04/10 05:18:19;;;;;;;10.63;6.10;;;;;;;;;;5054402;28;20021;-80
2022/04/10 05:20:45;;;;;;;11.35;6.10;;;;;;;;;;5053291;28;20040;-80
2022/04/10 05:23:12;;;;;;;9.70;5.63;;;;;;;;;;5053597;28;20361;-79
2022/04/10 05:25:38;;;;;;;9.10;4.95;;;;;;;;;;5053581;28;20050;-79
2022/04/10 05:28:04;;;;;;;11.65;5.10;;;;;;;;;;5054689;28;20492;-80
2022/04/10 05:30:30;;;;;;;18.98;7.88;;;;;;;;;;5053111;28;20151;-78
2022/04/10 05:32:57;;;;;;;11.75;5.20;;;;;;;;;;5050155;28;20480;-80
2022/04/10 05:35:23;;;;;;;13.65;6.43;;;;;;;;;;5053140;28;20029;-79
2022/04/10 05:37:49;;;;;;;10.82;6.20;;;;;;;;;;5053490;28;20147;-79
2022/04/10 05:40:16;;;;;;;15.00;6.60;;;;;;;;;;5052701;28;20029;-79
2022/04/10 05:42:46;;;;;;;16.77;6.60;;;;;;;;;;5052944;28;20472;-80
2022/04/10 05:45:12;;;;;;;13.80;6.97;;;;;;;;;;5052920;28;20021;-80
2022/04/10 05:47:39;;;;;;;15.40;7.53;;;;;;;;;;5052692;28;20356;-78
2022/04/10 05:50:07;;;;;;;15.48;6.90;;;;;;;;;;5055339;28;20025;-79
2022/04/10 05:52:37;;;;;;;16.90;8.80;;;;;;;;;;5073628;28;20045;-78
2022/04/10 05:55:03;;;;;;;18.80;10.32;;;;;;;;;;5055970;28;20360;-79
2022/04/10 05:57:29;;;;;;;13.00;7.18;;;;;;;;;;5055740;28;20070;-79
2022/04/10 05:59:55;;;;;;;20.10;8.90;;;;;;;;;;5055593;28;20024;-77
2022/04/10 06:02:21;;;;;;;14.80;7.75;;;;;;;;;;5073651;28;20036;-80
2022/04/10 06:04:47;;;;;;;16.15;8.15;;;;;;;;;;5055619;28;20055;-79
2022/04/10 06:07:13;;;;;;;10.52;6.43;;;;;;;;;;5054884;28;20104;-78
2022/04/10 06:09:39;;;;;;;15.93;9.40;;;;;;;;;;5073142;28;20021;-77
2022/04/10 06:12:06;;;;;;;14.57;7.80;;;;;;;;;;5055206;28;20027;-78
2022/04/10 06:14:32;;;;;;;19.17;9.07;;;;;;;;;;5076485;28;20021;-77
2022/04/10 06:16:58;;;;;;;16.40;9.63;;;;;;;;;;5055259;28;20112;-78
2022/04/10 06:19:24;;;;;;;19.77;11.05;;;;;;;;;;5051489;28;20018;-78
2022/04/10 06:21:50;;;;;;;17.17;9.38;;;;;;;;;;5052728;28;20033;-78
2022/04/10 06:24:16;;;;;;;22.85;12.60;;;;;;;;;;5051960;28;20036;-79
2022/04/10 06:26:44;;;;;;;12.98;7.15;;;;;;;;;;5051850;28;20154;-78
2022/04/10 06:29:10;;;;;;;14.23;8.85;;;;;;;;;;5053174;28;20018;-79
2022/04/10 06:31:36;;;;;;;16.52;8.88;;;;;;;;;;5051848;28;20112;-79
2022/04/10 06:34:02;;;;;;;20.75;9.95;;;;;;;;;;5051371;28;20021;-79
2022/04/10 06:36:28;;;;;;;17.70;9.18;;;;;;;;;;5051291;28;20025;-79
2022/04/10 06:38:54;;;;;;;12.65;6.50;;;;;;;;;;5052494;28;20025;-79
2022/04/10 06:41:21;;;;;;;19.50;10.23;;;;;;;;;;5050923;28;20480;-80
2022/04/10 06:43:47;;;;;;;9.57;5.28;;;;;;;;;;5051851;28;20114;-78
2022/04/10 06:46:13;;;;;;;14.80;8.32;;;;;;;;;;5051545;28;20021;-78
2022/04/10 06:48:39;;;;;;;15.85;6.43;;;;;;;;;;5052628;28;20017;-79
2022/04/10 06:51:05;;;;;;;18.80;8.52;;;;;;;;;;5052618;28;20079;-80
2022/04/10 06:53:32;;;;;;;17.33;8.63;;;;;;;;;;5050936;28;20921;-77
2022/04/10 06:55:58;;;;;;;22.27;12.13;;;;;;;;;;5051420;28;20551;-77
2022/04/10 06:58:24;;;;;;;17.80;10.27;;;;;;;;;;5051182;28;20408;-80
2022/04/10 07:00:50;;;;;;;25.95;12.00;;;;;;;;;;5051122;28;20468;-78
2022/04/10 07:03:16;;;;;;;13.77;7.05;;;;;;;;;;5052957;28;20040;-79
2022/04/10 07:05:43;;;;;;;22.88;11.40;;;;;;;;;;5052668;28;20067;-78
2022/04/10 07:08:09;;;;;;;16.17;8.70;;;;;;;;;;5052163;28;20028;-78
2022/04/10 07:10:39;;;;;;;12.05;7.63;;;;;;;;;;5071895;28;20051;-77
2022/04/10 07:13:05;;;;;;;10.02;5.50;;;;;;;;;;5071738;28;20395;-77
2022/04/10 07:15:31;;;;;;;17.40;10.38;;;;;;;;;;5053532;28;20036;-77
2022/04/10 07:17:58;;;;;;;13.73;7.00;;;;;;;;;;5074117;28;20016;-77
2022/04/10 07:20:24;;;;;;;9.90;5.20;;;;;;;;;;5053399;28;20029;-78
2022/04/10 07:25:35;;;;;;;12.25;5.82;;;;;;;;;;5069748;28;20035;-79
2022/04/10 07:28:02;;;;;;;16.27;8.00;;;;;;;;;;5053784;28;20027;-79
2022/04/10 07:30:29;;;;;;;17.35;9.93;;;;;;;;;;5053306;28;20029;-77
2022/04/10 07:32:55;;;;;;;18.15;9.18;;;;;;;;;;5054162;28;20066;-77
2022/04/10 07:35:22;;;;;;;14.55;7.10;;;;;;;;;;5054812;28;20112;-81
2022/04/10 07:37:49;;;;;;;10.93;5.82;;;;;;;;;;5053706;28;20027;-78
2022/04/10 07:40:15;;;;;;;9.23;6.30;;;;;;;;;;5051621;28;20017;-77
2022/04/10 07:42:45;;;;;;;12.40;6.53;;;;;;;;;;5051737;28;20552;-78
2022/04/10 07:47:25;;;;;;;12.52;6.88;;;;;;;;;;5052028;28;20025;-77
2022/04/10 07:48:00;;;;;;;16.27;8.93;;;;;;;;;;5069296;28;20536;-77
2022/04/10 07:50:27;;;;;;;10.32;6.50;;;;;;;;;;5042791;28;20044;-76
2022/04/10 07:52:53;;;;;;;14.63;6.53;;;;;;;;;;5050437;28;20021;-77
2022/04/10 07:55:19;;;;;;;9.52;5.75;;;;;;;;;;5051029;28;20029;-78
2022/04/10 07:57:46;;;;;;;8.77;5.72;;;;;;;;;;5050943;28;20029;-78
2022/04/10 08:00:12;;;;;;;6.82;3.05;;;;;;;;;;5049220;28;20021;-76
2022/04/10 08:02:39;;;;;;;6.57;3.45;;;;;;;;;;5049714;28;20017;-77
2022/04/10 08:05:05;;;;;;;10.65;5.90;;;;;;;;;;5049023;28;20091;-78
2022/04/10 08:07:31;;;;;;;8.55;2.42;;;;;;;;;;5049769;28;20021;-77
2022/04/10 08:09:57;;;;;;;2.70;2.08;;;;;;;;;;5049794;28;20024;-77
2022/04/10 08:12:24;;;;;;;9.18;3.85;;;;;;;;;;5049963;28;20024;-77
2022/04/10 08:14:50;;;;;;;4.43;2.60;;;;;;;;;;5049643;28;20028;-78
2022/04/10 08:17:16;;;;;;;6.65;3.67;;;;;;;;;;5051114;28;20027;-77
2022/04/10 08:19:42;;;;;;;6.63;4.68;;;;;;;;;;5052478;28;20025;-76
2022/04/10 08:22:08;;;;;;;7.47;4.60;;;;;;;;;;5050235;28;20037;-75
2022/04/10 08:24:36;;;;;;;7.43;5.20;;;;;;;;;;5050676;28;20412;-76
2022/04/10 08:27:03;;;;;;;9.45;5.78;;;;;;;;;;5051216;28;20021;-78
2022/04/10 08:29:29;;;;;;;5.68;3.95;;;;;;;;;;5053217;28;20021;-79
2022/04/10 08:31:55;;;;;;;6.25;2.95;;;;;;;;;;5053447;28;20025;-77
2022/04/10 08:34:21;;;;;;;4.97;2.45;;;;;;;;;;5053556;28;20494;-77
2022/04/10 08:36:47;;;;;;;9.52;5.68;;;;;;;;;;5053513;28;20017;-77
2022/04/10 08:39:13;;;;;;;5.88;2.78;;;;;;;;;;5053511;28;20021;-78
2022/04/10 08:41:39;;;;;;;7.47;3.60;;;;;;;;;;5054409;28;20086;-79
2022/04/10 08:44:06;;;;;;;6.43;3.33;;;;;;;;;;5052981;28;20021;-80
2022/04/10 08:46:35;;;;;;;5.82;2.53;;;;;;;;;;5054316;28;20156;-77
2022/04/10 08:49:02;;;;;;;15.02;5.47;;;;;;;;;;5053255;28;20054;-76
2022/04/10 08:51:29;;;;;;;5.32;2.83;;;;;;;;;;5069297;28;20051;-76
2022/04/10 08:53:55;;;;;;;9.80;3.97;;;;;;;;;;5076244;28;20017;-80
2022/04/10 08:56:23;;;;;;;3.80;1.75;;;;;;;;;;5056206;28;20028;-79
2022/04/10 08:58:52;;;;;;;5.97;3.65;;;;;;;;;;5073303;28;20016;-78
2022/04/10 09:01:22;;;;;;;5.35;3.63;;;;;;;;;;5055124;28;20067;-80
2022/04/10 09:03:48;;;;;;;6.63;4.28;;;;;;;;;;5051884;28;20048;-79
2022/04/10 09:06:14;;;;;;;10.43;4.75;;;;;;;;;;5049729;28;20033;-78
2022/04/10 09:08:41;;;;;;;7.75;3.33;;;;;;;;;;5072944;28;20017;-77
2022/04/10 09:11:08;;;;;;;5.82;3.75;;;;;;;;;;5055032;28;20021;-78
2022/04/10 09:13:34;;;;;;;4.53;2.90;;;;;;;;;;5072948;28;20025;-79
2022/04/10 09:16:21;;;;;;;3.67;3.13;;;;;;;;;;5073455;28;20360;-78
2022/04/10 09:19:01;;;;;;;9.40;3.65;;;;;;;;;;5071187;28;20023;-78
2022/04/10 09:21:29;;;;;;;4.97;3.22;;;;;;;;;;5072396;28;20059;-78
2022/04/10 09:24:00;;;;;;;10.90;5.90;;;;;;;;;;5055376;28;20044;-76
2022/04/10 09:26:26;;;;;;;8.50;5.35;;;;;;;;;;5072782;28;20056;-77
2022/04/10 09:28:53;;;;;;;7.32;4.95;;;;;;;;;;5054840;28;20070;-77
2022/04/10 09:31:29;;;;;;;8.27;4.45;;;;;;;;;;5073433;28;20024;-74
2022/04/10 09:33:56;;;;;;;9.68;5.65;;;;;;;;;;5073713;28;20033;-76
2022/04/10 09:36:28;;;;;;;8.35;4.18;;;;;;;;;;5055534;28;20016;-76
2022/04/10 09:38:54;;;;;;;8.52;5.28;;;;;;;;;;5073401;28;20047;-76
2022/04/10 09:41:21;;;;;;;10.55;7.85;;;;;;;;;;5072302;28;20385;-77
2022/04/10 09:43:47;;;;;;;6.65;4.65;;;;;;;;;;5055656;28;20032;-76
2022/04/10 09:46:13;;;;;;;8.05;5.47;;;;;;;;;;5051659;28;20029;-77
2022/04/10 09:48:39;;;;;;;6.38;5.07;;;;;;;;;;5071935;28;20035;-76
2022/04/10 09:51:05;;;;;;;7.80;5.30;;;;;;;;;;5056592;28;20501;-77
2022/04/10 09:53:32;;;;;;;5.40;4.00;;;;;;;;;;5055721;28;20075;-77
2022/04/10 09:56:02;;;;;;;9.75;6.55;;;;;;;;;;5073294;28;20085;-78
2022/04/10 09:58:29;;;;;;;9.88;6.00;;;;;;;;;;5071248;28;20407;-77
2022/04/10 10:00:56;;;;;;;9.90;7.15;;;;;;;;;;5054876;28;20501;-77
2022/04/10 10:03:23;;;;;;;7.75;4.13;;;;;;;;;;5054404;28;20020;-76
2022/04/10 10:05:50;;;;;;;4.78;3.80;;;;;;;;;;5073154;28;20031;-77
2022/04/10 10:08:17;;;;;;;4.40;2.95;;;;;;;;;;5061228;28;20048;-79
2022/04/10 10:10:44;;;;;;;7.32;6.32;;;;;;;;;;5049951;28;20033;-76
2022/04/10 10:13:12;;;;;;;9.10;6.53;;;;;;;;;;5063158;28;20525;-76
2022/04/10 10:15:38;;;;;;;9.35;7.22;;;;;;;;;;5070778;28;20032;-76
2022/04/10 10:18:06;;;;;;;11.05;8.00;;;;;;;;;;5057804;28;20082;-77
2022/04/10 10:20:33;;;;;;;8.35;6.00;;;;;;;;;;5052574;28;20044;-76
2022/04/10 10:23:03;;;;;;;12.98;7.80;;;;;;;;;;5052074;28;20098;-78
2022/04/10 10:25:48;;;;;;;12.05;9.93;;;;;;;;;;5072832;28;20483;-81
2022/04/10 10:28:32;;;;;;;15.77;11.10;;;;;;;;;;5071478;28;20024;-82
2022/04/10 10:31:04;;;;;;;14.23;9.75;;;;;;;;;;5034756;28;20029;-79
2022/04/10 10:33:30;;;;;;;12.93;10.18;;;;;;;;;;5048965;28;20025;-78
2022/04/10 10:36:00;;;;;;;20.75;12.00;;;;;;;;;;5045960;28;20120;-75
2022/04/10 10:38:28;;;;;;;21.80;14.18;;;;;;;;;;5053265;28;20055;-76
2022/04/10 10:41:08;;;;;;;20.75;15.05;;;;;;;;;;5052816;28;20075;-76
2022/04/10 10:43:35;;;;;;;28.27;17.45;;;;;;;;;;5070545;28;20028;-75
2022/04/10 10:46:01;;;;;;;22.42;14.90;;;;;;;;;;5069716;28;20479;-77
2022/04/10 10:48:33;;;;;;;28.17;8.93;;;;;;;;;;5068561;28;20039;-76
2022/04/10 10:51:03;;;;;;;17.48;13.77;;;;;;;;;;5069198;28;20049;-77
2022/04/10 10:53:43;;;;;;;15.70;10.27;;;;;;;;;;5070690;28;20031;-75
2022/04/10 10:56:13;;;;;;;24.30;14.38;;;;;;;;;;5070794;28;20017;-75
2022/04/10 10:58:40;;;;;;;16.23;12.10;;;;;;;;;;5051633;28;20024;-76
2022/04/10 11:01:07;;;;;;;14.25;11.65;;;;;;;;;;5070183;28;20497;-76
2022/04/10 11:03:53;;;;;;;17.63;9.82;;;;;;;;;;5052623;28;20048;-77
2022/04/10 11:06:21;;;;;;;18.90;14.00;;;;;;;;;;5068597;28;20048;-76
2022/04/10 11:08:47;;;;;;;12.93;9.55;;;;;;;;;;5053190;28;20024;-75
2022/04/10 11:11:19;;;;;;;13.52;10.68;;;;;;;;;;5071012;28;20475;-77
2022/04/10 11:13:48;;;;;;;15.57;10.57;;;;;;;;;;5052575;28;20120;-77
2022/04/10 11:16:14;;;;;;;23.08;15.25;;;;;;;;;;5069731;28;20074;-78
2022/04/10 11:18:42;;;;;;;16.85;9.60;;;;;;;;;;5070433;28;20067;-78
2022/04/10 11:21:10;;;;;;;18.08;14.20;;;;;;;;;;5069420;28;20033;-78
2022/04/10 11:23:41;;;;;;;18.90;13.35;;;;;;;;;;5052889;28;20406;-79
2022/04/10 11:26:10;;;;;;;12.40;9.85;;;;;;;;;;5071011;28;20017;-78
2022/04/10 11:29:12;;;;;;;14.18;11.65;;;;;;;;;;5052590;28;20020;-77
2022/04/10 11:31:40;;;;;;;14.00;10.48;;;;;;;;;;5020711;28;20025;-78
2022/04/10 11:34:10;;;;;;;13.00;7.43;;;;;;;;;;5043114;28;20036;-77
2022/04/10 11:36:45;;;;;;;16.55;11.85;;;;;;;;;;5052142;28;20074;-77
2022/04/10 11:39:12;;;;;;;13.50;11.18;;;;;;;;;;5071061;28;20021;-79
2022/04/10 11:41:38;;;;;;;13.18;11.40;;;;;;;;;;5050092;28;20043;-77
2022/04/10 11:44:08;;;;;;;18.90;10.15;;;;;;;;;;5067600;28;20066;-78
2022/04/10 11:46:37;;;;;;;17.08;14.48;;;;;;;;;;5069428;28;20051;-81
2022/04/10 11:49:03;;;;;;;19.70;14.57;;;;;;;;;;5052411;28;20059;-83
2022/04/10 11:51:30;;;;;;;12.57;9.10;;;;;;;;;;5071379;28;20040;-82
2022/04/10 11:53:56;;;;;;;16.25;12.00;;;;;;;;;;5069062;28;20032;-80
2022/04/10 11:56:22;;;;;;;14.32;10.50;;;;;;;;;;5070882;28;20035;-82
2022/04/10 11:58:48;;;;;;;19.38;11.07;;;;;;;;;;5053520;28;20032;-84
2022/04/10 12:01:15;;;;;;;12.43;10.25;;;;;;;;;;5070419;28;20040;-79
2022/04/10 12:03:43;;;;;;;15.05;11.20;;;;;;;;;;5069472;28;20028;-75
2022/04/10 12:06:09;;;;;;;11.65;10.45;;;;;;;;;;5067633;28;20032;-79
2022/04/10 12:08:36;;;;;;;15.95;11.13;;;;;;;;;;5055667;28;20027;-77
2022/04/10 12:11:03;;;;;;;17.58;14.05;;;;;;;;;;5055737;28;20115;-76
2022/04/10 12:13:29;;;;;;;17.67;13.55;;;;;;;;;;5073964;28;20028;-76
2022/04/10 12:16:02;;;;;;;25.20;17.67;;;;;;;;;;5056462;28;20068;-76
2022/04/10 12:18:28;;;;;;;22.20;18.02;;;;;;;;;;5074495;28;20029;-77
2022/04/10 12:21:04;;;;;;;23.08;17.70;;;;;;;;;;5075017;28;20892;-78
2022/04/10 12:23:30;;;;;;;25.35;19.42;;;;;;;;;;5056640;28;20020;-77
2022/04/10 12:25:57;;;;;;;24.40;18.73;;;;;;;;;;5057002;28;20451;-76
2022/04/10 12:28:24;;;;;;;19.77;15.30;;;;;;;;;;5075671;28;20024;-78
2022/04/10 12:30:51;;;;;;;15.50;10.82;;;;;;;;;;5074760;28;20028;-77
2022/04/10 12:33:18;;;;;;;12.13;8.98;;;;;;;;;;5056381;28;20020;-78
2022/04/10 12:35:44;;;;;;;11.18;6.82;;;;;;;;;;5055682;28;20029;-78
2022/04/10 12:38:16;;;;;;;13.00;6.78;;;;;;;;;;5055810;28;20082;-78
2022/04/10 12:40:42;;;;;;;9.80;8.10;;;;;;;;;;5073185;28;20479;-77
2022/04/10 12:43:09;;;;;;;10.73;7.25;;;;;;;;;;5056490;28;20024;-78
2022/04/10 12:45:37;;;;;;;8.80;7.90;;;;;;;;;;5056224;28;20115;-77
2022/04/10 12:48:24;;;;;;;13.77;11.82;;;;;;;;;;5073600;28;20088;-77
2022/04/10 12:51:06;;;;;;;12.07;9.27;;;;;;;;;;5072958;28;20518;-77
2022/04/10 12:53:33;;;;;;;15.18;9.10;;;;;;;;;;5073725;28;20048;-77
2022/04/10 12:55:59;;;;;;;11.95;9.35;;;;;;;;;;5056454;28;20021;-78
2022/04/10 12:58:31;;;;;;;11.13;8.63;;;;;;;;;;5055618;28;20017;-78
2022/04/10 13:00:59;;;;;;;11.95;7.85;;;;;;;;;;5073610;28;20041;-76
2022/04/10 13:03:29;;;;;;;12.45;7.95;;;;;;;;;;5073928;28;20020;-76
2022/04/10 13:05:57;;;;;;;14.55;10.88;;;;;;;;;;5073943;28;20020;-76
2022/04/10 13:08:24;;;;;;;20.95;11.40;;;;;;;;;;5073623;28;20016;-75
2022/04/10 13:10:51;;;;;;;16.70;13.40;;;;;;;;;;5074350;28;20016;-76
2022/04/10 13:13:17;;;;;;;21.48;13.57;;;;;;;;;;5055956;28;20475;-77
2022/04/10 13:15:43;;;;;;;13.70;10.18;;;;;;;;;;5071790;28;20025;-77
2022/04/10 13:18:09;;;;;;;27.33;14.48;;;;;;;;;;5073874;28;20024;-76
2022/04/10 13:20:39;;;;;;;14.93;11.38;;;;;;;;;;5073580;28;20048;-76
2022/04/10 13:23:06;;;;;;;22.65;17.20;;;;;;;;;;5073718;28;20028;-77
2022/04/10 13:25:32;;;;;;;13.52;9.10;;;;;;;;;;5073596;28;20023;-76
2022/04/10 13:28:01;;;;;;;12.25;9.88;;;;;;;;;;5074111;28;20021;-76
2022/04/10 13:30:28;;;;;;;9.60;8.25;;;;;;;;;;5073740;28;20025;-75
2022/04/10 13:32:54;;;;;;;28.80;18.95;;;;;;;;;;5073553;28;20017;-76
2022/04/10 13:35:21;;;;;;;12.00;8.93;;;;;;;;;;5073338;28;20035;-77
2022/04/10 13:37:47;;;;;;;16.77;11.52;;;;;;;;;;5073203;28;20111;-77
2022/04/10 13:40:15;;;;;;;22.15;15.50;;;;;;;;;;5053503;28;20020;-79
2022/04/10 13:42:43;;;;;;;19.55;14.15;;;;;;;;;;5073464;28;20068;-76
2022/04/10 13:45:09;;;;;;;26.65;19.05;;;;;;;;;;5073361;28;20097;-77
2022/04/10 13:47:35;;;;;;;20.58;14.70;;;;;;;;;;5051828;28;20020;-81
2022/04/10 13:50:02;;;;;;;19.30;11.70;;;;;;;;;;5053287;28;20021;-80
2022/04/10 13:52:28;;;;;;;28.85;20.67;;;;;;;;;;5053598;28;20021;-82
2022/04/10 13:54:54;;;;;;;34.90;24.10;;;;;;;;;;5053274;28;20469;-77
2022/04/10 13:57:20;;;;;;;26.88;19.63;;;;;;;;;;5064363;28;20024;-81
2022/04/10 13:59:47;;;;;;;22.98;17.15;;;;;;;;;;5053962;28;20027;-80
2022/04/10 14:02:13;;;;;;;32.28;19.85;;;;;;;;;;5053672;28;20383;-77
2022/04/10 14:04:39;;;;;;;26.20;17.27;;;;;;;;;;5072827;28;20024;-79
2022/04/10 14:07:05;;;;;;;24.25;18.65;;;;;;;;;;5073126;28;20467;-76
2022/04/10 14:09:32;;;;;;;17.67;13.68;;;;;;;;;;5054231;28;20024;-79
2022/04/10 14:11:58;;;;;;;23.15;17.60;;;;;;;;;;5072264;28;20017;-79
2022/04/10 14:14:24;;;;;;;25.42;19.52;;;;;;;;;;5054142;28;20341;-79
2022/04/10 14:16:50;;;;;;;25.80;17.48;;;;;;;;;;5054777;28;20031;-85
2022/04/10 14:19:16;;;;;;;20.75;13.57;;;;;;;;;;5072896;28;20494;-84
2022/04/10 14:21:42;;;;;;;15.32;10.57;;;;;;;;;;5072690;28;20107;-89
2022/04/10 14:24:08;;;;;;;18.42;14.43;;;;;;;;;;5055233;28;20028;-85
2022/04/10 14:26:34;;;;;;;23.77;17.58;;;;;;;;;;5055565;28;20025;-84
2022/04/10 14:29:01;;;;;;;17.55;13.13;;;;;;;;;;5055739;28;20028;-83
2022/04/10 14:31:27;;;;;;;18.30;13.70;;;;;;;;;;5059553;28;20051;-84
2022/04/10 14:33:53;;;;;;;21.15;14.68;;;;;;;;;;5061284;28;20014;-83
2022/04/10 14:36:20;;;;;;;14.90;10.48;;;;;;;;;;5073401;28;20059;-86